sensor_id;sensor_type;location;lat;lon;timestamp;pressure;altitude;pressure_sealevel;temperature
19102;BMP280;9683;49.028;12.064;2023-05-07T00:01:25;97236.34;;;16.86
19102;BMP280;9683;49.028;12.064;2023-05-07T00:03:53;97232.59;;;16.87
19102;BMP280;9683;49.028;12.064;2023-05-07T00:06:20;97237.41;;;16.85
19102;BMP280;9683;49.028;12.064;2023-05-07T00:08:46;97238.75;;;16.83
19102;BMP280;9683;49.028;12.064;2023-05-07T00:11:13;97235.50;;;16.81
19102;BMP280;9683;49.028;12.064;2023-05-07T00:13:40;97229.03;;;16.77
19102;BMP280;9683;49.028;12.064;2023-05-07T00:16:06;97233.31;;;16.73
19102;BMP280;9683;49.028;12.064;2023-05-07T00:18:33;97231.69;;;16.72
19102;BMP280;9683;49.028;12.064;2023-05-07T00:21:01;97240.31;;;16.74
19102;BMP280;9683;49.028;12.064;2023-05-07T00:23:27;97226.84;;;16.69
19102;BMP280;9683;49.028;12.064;2023-05-07T00:25:54;97229.28;;;16.70
19102;BMP280;9683;49.028;12.064;2023-05-07T00:28:20;97232.78;;;16.71
19102;BMP280;9683;49.028;12.064;2023-05-07T00:30:47;97227.91;;;16.68
19102;BMP280;9683;49.028;12.064;2023-05-07T00:33:13;97235.16;;;16.67
19102;BMP280;9683;49.028;12.064;2023-05-07T00:35:42;97231.41;;;16.68
19102;BMP280;9683;49.028;12.064;2023-05-07T00:38:10;97237.34;;;16.70
19102;BMP280;9683;49.028;12.064;2023-05-07T00:40:36;97244.31;;;16.66
19102;BMP280;9683;49.028;12.064;2023-05-07T00:43:03;97235.41;;;16.61
19102;BMP280;9683;49.028;12.064;2023-05-07T00:45:29;97230.78;;;16.56
19102;BMP280;9683;49.028;12.064;2023-05-07T00:47:58;97236.75;;;16.58
19102;BMP280;9683;49.028;12.064;2023-05-07T00:50:26;97227.88;;;16.58
19102;BMP280;9683;49.028;12.064;2023-05-07T00:52:53;97223.03;;;16.60
19102;BMP280;9683;49.028;12.064;2023-05-07T00:55:22;97223.31;;;16.63
19102;BMP280;9683;49.028;12.064;2023-05-07T00:57:49;97230.78;;;16.56
19102;BMP280;9683;49.028;12.064;2023-05-07T01:00:16;97241.63;;;16.66
19102;BMP280;9683;49.028;12.064;2023-05-07T01:02:44;97245.09;;;16.62
19102;BMP280;9683;49.028;12.064;2023-05-07T01:05:14;97240.78;;;16.61
19102;BMP280;9683;49.028;12.064;2023-05-07T01:07:42;97241.53;;;16.56
19102;BMP280;9683;49.028;12.064;2023-05-07T01:10:09;97244.28;;;16.61
19102;BMP280;9683;49.028;12.064;2023-05-07T01:12:39;97248.59;;;16.62
19102;BMP280;9683;49.028;12.064;2023-05-07T01:15:08;97240.22;;;16.59
19102;BMP280;9683;49.028;12.064;2023-05-07T01:17:35;97216.19;;;16.37
19102;BMP280;9683;49.028;12.064;2023-05-07T01:20:04;97246.41;;;16.59
19102;BMP280;9683;49.028;12.064;2023-05-07T01:22:34;97251.53;;;16.61
19102;BMP280;9683;49.028;12.064;2023-05-07T01:25:02;97252.06;;;16.63
19102;BMP280;9683;49.028;12.064;2023-05-07T01:27:29;97243.22;;;16.62
19102;BMP280;9683;49.028;12.064;2023-05-07T01:29:55;97244.28;;;16.61
19102;BMP280;9683;49.028;12.064;2023-05-07T01:32:25;97237.56;;;16.64
19102;BMP280;9683;49.028;12.064;2023-05-07T01:34:55;97231.38;;;16.63
19102;BMP280;9683;49.028;12.064;2023-05-07T01:37:22;97229.47;;;16.59
19102;BMP280;9683;49.028;12.064;2023-05-07T01:39:50;97235.41;;;16.61
19102;BMP280;9683;49.028;12.064;2023-05-07T01:42:17;97200.09;;;16.37
19102;BMP280;9683;49.028;12.064;2023-05-07T01:44:44;97236.16;;;16.56
19102;BMP280;9683;49.028;12.064;2023-05-07T01:47:11;97232.13;;;16.54
19102;BMP280;9683;49.028;12.064;2023-05-07T01:49:38;97243.38;;;16.45
19102;BMP280;9683;49.028;12.064;2023-05-07T01:52:06;97242.78;;;16.38
19102;BMP280;9683;49.028;12.064;2023-05-07T01:54:32;97240.09;;;16.38
19102;BMP280;9683;49.028;12.064;2023-05-07T01:57:00;97253.31;;;16.45
19102;BMP280;9683;49.028;12.064;2023-05-07T01:59:27;97256.50;;;16.42
19102;BMP280;9683;49.028;12.064;2023-05-07T02:01:53;97240.38;;;16.42
19102;BMP280;9683;49.028;12.064;2023-05-07T02:04:20;97245.47;;;16.38
19102;BMP280;9683;49.028;12.064;2023-05-07T02:06:47;97247.34;;;16.33
19102;BMP280;9683;49.028;12.064;2023-05-07T02:09:13;97242.22;;;16.31
19102;BMP280;9683;49.028;12.064;2023-05-07T02:11:41;97240.06;;;16.33
19102;BMP280;9683;49.028;12.064;2023-05-07T02:14:09;97245.72;;;16.32
19102;BMP280;9683;49.028;12.064;2023-05-07T02:16:35;97248.66;;;16.30
19102;BMP280;9683;49.028;12.064;2023-05-07T02:19:02;97240.59;;;16.30
19102;BMP280;9683;49.028;12.064;2023-05-07T02:21:29;97255.06;;;16.29
19102;BMP280;9683;49.028;12.064;2023-05-07T02:23:55;97245.16;;;16.30
19102;BMP280;9683;49.028;12.064;2023-05-07T02:26:22;97243.53;;;16.29
19102;BMP280;9683;49.028;12.064;2023-05-07T02:28:48;97238.72;;;16.31
19102;BMP280;9683;49.028;12.064;2023-05-07T02:31:17;97245.44;;;16.33
19102;BMP280;9683;49.028;12.064;2023-05-07T02:33:44;97244.13;;;16.36
19102;BMP280;9683;49.028;12.064;2023-05-07T02:36:11;97219.34;;;16.24
19102;BMP280;9683;49.028;12.064;2023-05-07T02:38:38;97242.53;;;16.40
19102;BMP280;9683;49.028;12.064;2023-05-07T02:41:05;97205.06;;;16.18
19102;BMP280;9683;49.028;12.064;2023-05-07T02:43:31;97233.91;;;16.38
19102;BMP280;9683;49.028;12.064;2023-05-07T02:46:02;97219.66;;;16.37
19102;BMP280;9683;49.028;12.064;2023-05-07T02:48:30;97222.34;;;16.37
19102;BMP280;9683;49.028;12.064;2023-05-07T02:50:57;97222.59;;;16.31
19102;BMP280;9683;49.028;12.064;2023-05-07T02:53:23;97229.31;;;16.28
19102;BMP280;9683;49.028;12.064;2023-05-07T02:55:51;97230.38;;;16.27
19102;BMP280;9683;49.028;12.064;2023-05-07T02:58:18;97228.22;;;16.24
19102;BMP280;9683;49.028;12.064;2023-05-07T03:00:44;97216.66;;;16.24
19102;BMP280;9683;49.028;12.064;2023-05-07T03:03:11;97227.38;;;16.19
19102;BMP280;9683;49.028;12.064;2023-05-07T03:05:39;97212.81;;;16.10
19102;BMP280;9683;49.028;12.064;2023-05-07T03:08:06;97224.13;;;16.17
19102;BMP280;9683;49.028;12.064;2023-05-07T03:10:33;97228.38;;;16.13
19102;BMP280;9683;49.028;12.064;2023-05-07T03:13:00;97224.63;;;16.14
19102;BMP280;9683;49.028;12.064;2023-05-07T03:15:27;97218.75;;;16.12
19102;BMP280;9683;49.028;12.064;2023-05-07T03:17:53;97223.78;;;16.08
19102;BMP280;9683;49.028;12.064;2023-05-07T03:20:20;97228.66;;;16.11
19102;BMP280;9683;49.028;12.064;2023-05-07T03:22:48;97224.59;;;16.09
19102;BMP280;9683;49.028;12.064;2023-05-07T03:25:15;97226.47;;;16.08
19102;BMP280;9683;49.028;12.064;2023-05-07T03:27:41;97225.69;;;16.08
19102;BMP280;9683;49.028;12.064;2023-05-07T03:30:09;97224.59;;;16.09
19102;BMP280;9683;49.028;12.064;2023-05-07T03:32:36;97222.44;;;16.05
19102;BMP280;9683;49.028;12.064;2023-05-07T03:35:03;97218.66;;;16.01
19102;BMP280;9683;49.028;12.064;2023-05-07T03:37:30;97210.03;;;15.99
19102;BMP280;9683;49.028;12.064;2023-05-07T03:39:58;97220.81;;;16.04
19102;BMP280;9683;49.028;12.064;2023-05-07T03:42:25;97220.00;;;16.04
19102;BMP280;9683;49.028;12.064;2023-05-07T03:44:51;97230.25;;;16.07
19102;BMP280;9683;49.028;12.064;2023-05-07T03:47:18;97237.22;;;16.08
19102;BMP280;9683;49.028;12.064;2023-05-07T03:49:44;97236.69;;;16.06
19102;BMP280;9683;49.028;12.064;2023-05-07T03:52:11;97235.56;;;16.02
19102;BMP280;9683;49.028;12.064;2023-05-07T03:54:38;97241.47;;;16.04
19102;BMP280;9683;49.028;12.064;2023-05-07T03:57:06;97236.38;;;16.02
19102;BMP280;9683;49.028;12.064;2023-05-07T03:59:32;97242.25;;;15.94
19102;BMP280;9683;49.028;12.064;2023-05-07T04:01:59;97245.97;;;15.93
19102;BMP280;9683;49.028;12.064;2023-05-07T04:04:25;97247.03;;;15.92
19102;BMP280;9683;49.028;12.064;2023-05-07T04:06:52;97258.84;;;15.91
19102;BMP280;9683;49.028;12.064;2023-05-07T04:09:19;97255.09;;;15.92
19102;BMP280;9683;49.028;12.064;2023-05-07T04:11:45;97261.28;;;15.93
19102;BMP280;9683;49.028;12.064;2023-05-07T04:14:13;97259.16;;;15.95
19102;BMP280;9683;49.028;12.064;2023-05-07T04:16:40;97251.09;;;15.95
19102;BMP280;9683;49.028;12.064;2023-05-07T04:19:07;97257.53;;;15.94
19102;BMP280;9683;49.028;12.064;2023-05-07T04:21:33;97262.91;;;15.94
19102;BMP280;9683;49.028;12.064;2023-05-07T04:24:00;97267.44;;;15.93
19102;BMP280;9683;49.028;12.064;2023-05-07T04:26:26;97258.03;;;15.91
19102;BMP280;9683;49.028;12.064;2023-05-07T04:28:53;97265.59;;;15.94
19102;BMP280;9683;49.028;12.064;2023-05-07T04:31:21;97261.56;;;15.96
19102;BMP280;9683;49.028;12.064;2023-05-07T04:33:48;97266.13;;;15.96
19102;BMP280;9683;49.028;12.064;2023-05-07T04:36:16;97261.84;;;15.95
19102;BMP280;9683;49.028;12.064;2023-05-07T04:38:42;97261.28;;;15.93
19102;BMP280;9683;49.028;12.064;2023-05-07T04:41:12;97264.53;;;15.95
19102;BMP280;9683;49.028;12.064;2023-05-07T04:43:39;97235.38;;;15.77
19102;BMP280;9683;49.028;12.064;2023-05-07T04:46:07;97263.72;;;15.94
19102;BMP280;9683;49.028;12.064;2023-05-07T04:48:34;97256.19;;;15.96
19102;BMP280;9683;49.028;12.064;2023-05-07T04:51:01;97262.66;;;16.00
19102;BMP280;9683;49.028;12.064;2023-05-07T04:53:28;97269.91;;;16.00
19102;BMP280;9683;49.028;12.064;2023-05-07T04:55:55;97268.03;;;16.00
19102;BMP280;9683;49.028;12.064;2023-05-07T04:58:23;97268.66;;;16.08
19102;BMP280;9683;49.028;12.064;2023-05-07T05:00:49;97267.59;;;16.14
19102;BMP280;9683;49.028;12.064;2023-05-07T05:03:16;97276.50;;;16.19
19102;BMP280;9683;49.028;12.064;2023-05-07T05:05:44;97276.31;;;16.31
19102;BMP280;9683;49.028;12.064;2023-05-07T05:08:11;97269.59;;;16.28
19102;BMP280;9683;49.028;12.064;2023-05-07T05:10:37;97281.44;;;16.37
19102;BMP280;9683;49.028;12.064;2023-05-07T05:13:04;97282.00;;;16.39
19102;BMP280;9683;49.028;12.064;2023-05-07T05:15:31;97287.63;;;16.38
19102;BMP280;9683;49.028;12.064;2023-05-07T05:17:57;97262.81;;;16.21
19102;BMP280;9683;49.028;12.064;2023-05-07T05:20:24;97296.50;;;16.38
19102;BMP280;9683;49.028;12.064;2023-05-07T05:22:52;97297.13;;;16.45
19102;BMP280;9683;49.028;12.064;2023-05-07T05:25:19;97297.13;;;16.45
19102;BMP280;9683;49.028;12.064;2023-05-07T05:27:45;97283.06;;;16.38
19102;BMP280;9683;49.028;12.064;2023-05-07T05:30:12;97297.94;;;16.51
19102;BMP280;9683;49.028;12.064;2023-05-07T05:32:39;97297.41;;;16.54
19102;BMP280;9683;49.028;12.064;2023-05-07T05:35:06;97299.28;;;16.48
19102;BMP280;9683;49.028;12.064;2023-05-07T05:37:33;97290.59;;;16.41
19102;BMP280;9683;49.028;12.064;2023-05-07T05:40:01;97300.63;;;16.51
19102;BMP280;9683;49.028;12.064;2023-05-07T05:42:28;97300.09;;;16.54
19102;BMP280;9683;49.028;12.064;2023-05-07T05:44:55;97296.66;;;16.59
19102;BMP280;9683;49.028;12.064;2023-05-07T05:47:22;97288.91;;;16.67
19102;BMP280;9683;49.028;12.064;2023-05-07T05:49:49;97288.41;;;16.70
19102;BMP280;9683;49.028;12.064;2023-05-07T05:52:15;97288.72;;;16.79
19102;BMP280;9683;49.028;12.064;2023-05-07T05:54:42;97289.28;;;16.86
19102;BMP280;9683;49.028;12.064;2023-05-07T05:57:11;97288.50;;;16.90
19102;BMP280;9683;49.028;12.064;2023-05-07T05:59:37;97293.59;;;16.92
19102;BMP280;9683;49.028;12.064;2023-05-07T06:02:04;97292.53;;;16.93
19102;BMP280;9683;49.028;12.064;2023-05-07T06:04:31;97289.91;;;17.03
19102;BMP280;9683;49.028;12.064;2023-05-07T06:06:57;97290.75;;;17.09
19102;BMP280;9683;49.028;12.064;2023-05-07T06:09:24;97301.50;;;17.14
19102;BMP280;9683;49.028;12.064;2023-05-07T06:11:51;97297.50;;;17.16
19102;BMP280;9683;49.028;12.064;2023-05-07T06:14:18;97302.63;;;17.23
19102;BMP280;9683;49.028;12.064;2023-05-07T06:16:45;97304.00;;;17.25
19102;BMP280;9683;49.028;12.064;2023-05-07T06:19:12;97309.91;;;17.27
19102;BMP280;9683;49.028;12.064;2023-05-07T06:21:39;97314.75;;;17.30
19102;BMP280;9683;49.028;12.064;2023-05-07T06:24:06;97319.88;;;17.32
19102;BMP280;9683;49.028;12.064;2023-05-07T06:26:32;97322.00;;;17.30
19102;BMP280;9683;49.028;12.064;2023-05-07T06:28:59;97323.38;;;17.32
19102;BMP280;9683;49.028;12.064;2023-05-07T06:31:30;97326.38;;;17.41
19102;BMP280;9683;49.028;12.064;2023-05-07T06:33:57;97330.66;;;17.47
19102;BMP280;9683;49.028;12.064;2023-05-07T06:36:24;97333.38;;;17.52
19102;BMP280;9683;49.028;12.064;2023-05-07T06:38:51;97330.50;;;17.59
19102;BMP280;9683;49.028;12.064;2023-05-07T06:41:18;97329.13;;;17.61
19102;BMP280;9683;49.028;12.064;2023-05-07T06:43:45;97332.66;;;17.72
19102;BMP280;9683;49.028;12.064;2023-05-07T06:46:12;97330.78;;;17.77
19102;BMP280;9683;49.028;12.064;2023-05-07T06:48:40;97329.44;;;17.85
19102;BMP280;9683;49.028;12.064;2023-05-07T06:51:06;97333.50;;;17.88
19102;BMP280;9683;49.028;12.064;2023-05-07T06:53:33;97341.31;;;17.94
19102;BMP280;9683;49.028;12.064;2023-05-07T06:56:00;97344.81;;;18.00
19102;BMP280;9683;49.028;12.064;2023-05-07T06:58:27;97328.13;;;17.98
19102;BMP280;9683;49.028;12.064;2023-05-07T07:00:54;97342.69;;;18.12
19102;BMP280;9683;49.028;12.064;2023-05-07T07:03:20;97341.59;;;18.13
19102;BMP280;9683;49.028;12.064;2023-05-07T07:05:51;97335.13;;;18.19
19102;BMP280;9683;49.028;12.064;2023-05-07T07:08:17;97331.63;;;18.18
19102;BMP280;9683;49.028;12.064;2023-05-07T07:10:46;97330.84;;;18.18
19102;BMP280;9683;49.028;12.064;2023-05-07T07:13:13;97318.44;;;18.17
19102;BMP280;9683;49.028;12.064;2023-05-07T07:15:40;97338.09;;;18.27
19102;BMP280;9683;49.028;12.064;2023-05-07T07:18:06;97339.47;;;18.30
19102;BMP280;9683;49.028;12.064;2023-05-07T07:20:33;97305.22;;;18.15
19102;BMP280;9683;49.028;12.064;2023-05-07T07:23:01;97339.19;;;18.42
19102;BMP280;9683;49.028;12.064;2023-05-07T07:25:28;97330.03;;;18.43
19102;BMP280;9683;49.028;12.064;2023-05-07T07:27:54;97314.91;;;18.42
19102;BMP280;9683;49.028;12.064;2023-05-07T07:30:21;97330.56;;;18.55
19102;BMP280;9683;49.028;12.064;2023-05-07T07:32:48;97330.03;;;18.58
19102;BMP280;9683;49.028;12.064;2023-05-07T07:35:14;97342.44;;;18.64
19102;BMP280;9683;49.028;12.064;2023-05-07T07:37:41;97298.19;;;18.40
19102;BMP280;9683;49.028;12.064;2023-05-07T07:40:10;97286.84;;;18.48
19102;BMP280;9683;49.028;12.064;2023-05-07T07:42:37;97333.22;;;18.75
19102;BMP280;9683;49.028;12.064;2023-05-07T07:45:05;97332.69;;;18.73
19102;BMP280;9683;49.028;12.064;2023-05-07T07:47:32;97320.31;;;18.67
19102;BMP280;9683;49.028;12.064;2023-05-07T07:49:59;97329.97;;;18.78
19102;BMP280;9683;49.028;12.064;2023-05-07T07:52:25;97328.34;;;18.82
19102;BMP280;9683;49.028;12.064;2023-05-07T07:54:52;97333.47;;;18.89
19102;BMP280;9683;49.028;12.064;2023-05-07T07:57:20;97337.50;;;18.96
19102;BMP280;9683;49.028;12.064;2023-05-07T07:59:46;97330.47;;;19.00
19102;BMP280;9683;49.028;12.064;2023-05-07T08:02:13;97329.09;;;19.08
19102;BMP280;9683;49.028;12.064;2023-05-07T08:04:39;97333.91;;;19.16
19102;BMP280;9683;49.028;12.064;2023-05-07T08:07:08;97333.63;;;19.22
19102;BMP280;9683;49.028;12.064;2023-05-07T08:09:35;97331.69;;;19.28
19102;BMP280;9683;49.028;12.064;2023-05-07T08:12:01;97315.50;;;19.28
19102;BMP280;9683;49.028;12.064;2023-05-07T08:14:29;97321.13;;;19.37
19102;BMP280;9683;49.028;12.064;2023-05-07T08:16:56;97326.78;;;19.40
19102;BMP280;9683;49.028;12.064;2023-05-07T08:19:23;97331.38;;;19.45
19102;BMP280;9683;49.028;12.064;2023-05-07T08:21:50;97326.53;;;19.42
19102;BMP280;9683;49.028;12.064;2023-05-07T08:24:16;97341.34;;;19.54
19102;BMP280;9683;49.028;12.064;2023-05-07T08:26:43;97339.69;;;19.58
19102;BMP280;9683;49.028;12.064;2023-05-07T08:29:10;97344.25;;;19.63
19102;BMP280;9683;49.028;12.064;2023-05-07T08:31:38;97350.47;;;19.68
19102;BMP280;9683;49.028;12.064;2023-05-07T08:34:05;97343.19;;;19.64
19102;BMP280;9683;49.028;12.064;2023-05-07T08:36:32;97345.31;;;19.72
19102;BMP280;9683;49.028;12.064;2023-05-07T08:38:59;97352.56;;;19.77
19102;BMP280;9683;49.028;12.064;2023-05-07T08:41:26;97343.13;;;19.74
19102;BMP280;9683;49.028;12.064;2023-05-07T08:43:55;97353.84;;;19.89
19102;BMP280;9683;49.028;12.064;2023-05-07T08:46:25;97346.31;;;19.86
19102;BMP280;9683;49.028;12.064;2023-05-07T08:48:53;97352.72;;;19.95
19102;BMP280;9683;49.028;12.064;2023-05-07T08:51:20;97355.69;;;19.99
19102;BMP280;9683;49.028;12.064;2023-05-07T08:53:48;97348.06;;;20.06
19102;BMP280;9683;49.028;12.064;2023-05-07T08:56:16;97348.28;;;20.09
19102;BMP280;9683;49.028;12.064;2023-05-07T08:58:43;97354.50;;;20.10
19102;BMP280;9683;49.028;12.064;2023-05-07T09:01:11;97363.13;;;20.12
19102;BMP280;9683;49.028;12.064;2023-05-07T09:03:39;97360.69;;;20.16
19102;BMP280;9683;49.028;12.064;2023-05-07T09:06:07;97362.03;;;20.18
19102;BMP280;9683;49.028;12.064;2023-05-07T09:08:35;97353.09;;;20.18
19102;BMP280;9683;49.028;12.064;2023-05-07T09:11:02;97362.22;;;20.27
19102;BMP280;9683;49.028;12.064;2023-05-07T09:13:29;97357.91;;;20.31
19102;BMP280;9683;49.028;12.064;2023-05-07T09:15:56;97324.19;;;20.18
19102;BMP280;9683;49.028;12.064;2023-05-07T09:18:23;97351.63;;;20.40
19102;BMP280;9683;49.028;12.064;2023-05-07T09:20:50;97350.22;;;20.43
19102;BMP280;9683;49.028;12.064;2023-05-07T09:23:18;97341.00;;;20.49
19102;BMP280;9683;49.028;12.064;2023-05-07T09:25:46;97347.41;;;20.58
19102;BMP280;9683;49.028;12.064;2023-05-07T09:28:13;97356.00;;;20.65
19102;BMP280;9683;49.028;12.064;2023-05-07T09:30:39;97349.16;;;20.73
19102;BMP280;9683;49.028;12.064;2023-05-07T09:33:06;97351.28;;;20.76
19102;BMP280;9683;49.028;12.064;2023-05-07T09:35:33;97349.84;;;20.83
19102;BMP280;9683;49.028;12.064;2023-05-07T09:38:00;97342.53;;;20.84
19102;BMP280;9683;49.028;12.064;2023-05-07T09:40:30;97348.97;;;20.88
19102;BMP280;9683;49.028;12.064;2023-05-07T09:43:08;97343.84;;;20.91
19102;BMP280;9683;49.028;12.064;2023-05-07T09:45:36;97337.59;;;20.91
19102;BMP280;9683;49.028;12.064;2023-05-07T09:48:05;97338.59;;;21.00
19102;BMP280;9683;49.028;12.064;2023-05-07T09:50:36;97336.63;;;21.05
19102;BMP280;9683;49.028;12.064;2023-05-07T09:53:03;97328.84;;;20.99
19102;BMP280;9683;49.028;12.064;2023-05-07T09:55:32;97328.00;;;21.03
19102;BMP280;9683;49.028;12.064;2023-05-07T09:57:59;97307.53;;;20.92
19102;BMP280;9683;49.028;12.064;2023-05-07T10:00:27;97331.16;;;21.11
19102;BMP280;9683;49.028;12.064;2023-05-07T10:02:57;97330.91;;;21.12
19102;BMP280;9683;49.028;12.064;2023-05-07T10:05:23;97336.34;;;21.07
19102;BMP280;9683;49.028;12.064;2023-05-07T10:07:55;97340.66;;;21.08
19102;BMP280;9683;49.028;12.064;2023-05-07T10:10:47;97339.84;;;21.13
19102;BMP280;9683;49.028;12.064;2023-05-07T10:13:15;97338.66;;;21.19
19102;BMP280;9683;49.028;12.064;2023-05-07T10:15:43;97328.41;;;21.16
19102;BMP280;9683;49.028;12.064;2023-05-07T10:18:09;97337.63;;;21.15
19102;BMP280;9683;49.028;12.064;2023-05-07T10:20:39;97338.66;;;21.19
19102;BMP280;9683;49.028;12.064;2023-05-07T10:23:06;97339.25;;;21.16
19102;BMP280;9683;49.028;12.064;2023-05-07T10:25:33;97339.47;;;21.19
19102;BMP280;9683;49.028;12.064;2023-05-07T10:28:05;97343.44;;;21.27
19102;BMP280;9683;49.028;12.064;2023-05-07T10:30:40;97338.63;;;21.24
19102;BMP280;9683;49.028;12.064;2023-05-07T10:33:15;97347.19;;;21.31
19102;BMP280;9683;49.028;12.064;2023-05-07T10:35:44;97347.13;;;21.36
19102;BMP280;9683;49.028;12.064;2023-05-07T10:38:11;97339.22;;;21.39
19102;BMP280;9683;49.028;12.064;2023-05-07T10:40:38;97332.44;;;21.42
19102;BMP280;9683;49.028;12.064;2023-05-07T10:43:06;97334.19;;;21.52
19102;BMP280;9683;49.028;12.064;2023-05-07T10:45:33;97336.03;;;21.56
19102;BMP280;9683;49.028;12.064;2023-05-07T10:48:10;97326.75;;;21.62
19102;BMP280;9683;49.028;12.064;2023-05-07T10:50:37;97328.06;;;21.65
19102;BMP280;9683;49.028;12.064;2023-05-07T10:53:23;97319.94;;;21.65
19102;BMP280;9683;49.028;12.064;2023-05-07T10:56:25;97319.34;;;21.68
19102;BMP280;9683;49.028;12.064;2023-05-07T10:58:54;97320.97;;;21.69
19102;BMP280;9683;49.028;12.064;2023-05-07T11:01:51;97320.28;;;21.77
19102;BMP280;9683;49.028;12.064;2023-05-07T11:04:19;97304.91;;;21.72
19102;BMP280;9683;49.028;12.064;2023-05-07T11:10:03;97318.81;;;21.84
19102;BMP280;9683;49.028;12.064;2023-05-07T11:12:53;97314.94;;;21.90
19102;BMP280;9683;49.028;12.064;2023-05-07T11:15:45;97313.56;;;21.93
19102;BMP280;9683;49.028;12.064;2023-05-07T11:18:13;97314.09;;;21.95
19102;BMP280;9683;49.028;12.064;2023-05-07T11:20:48;97309.09;;;22.02
19102;BMP280;9683;49.028;12.064;2023-05-07T11:23:55;97314.66;;;22.11
19102;BMP280;9683;49.028;12.064;2023-05-07T11:26:27;97306.44;;;22.16
19102;BMP280;9683;49.028;12.064;2023-05-07T11:28:53;97297.44;;;22.20
19102;BMP280;9683;49.028;12.064;2023-05-07T11:31:23;97307.00;;;22.31
19102;BMP280;9683;49.028;12.064;2023-05-07T11:33:51;97287.81;;;22.28
19102;BMP280;9683;49.028;12.064;2023-05-07T11:36:19;97279.75;;;22.23
19102;BMP280;9683;49.028;12.064;2023-05-07T11:38:46;97296.81;;;22.42
19102;BMP280;9683;49.028;12.064;2023-05-07T11:41:13;97301.00;;;22.48
19102;BMP280;9683;49.028;12.064;2023-05-07T11:43:54;97288.78;;;22.51
19102;BMP280;9683;49.028;12.064;2023-05-07T11:46:22;97291.59;;;22.59
19102;BMP280;9683;49.028;12.064;2023-05-07T11:48:49;97303.97;;;22.65
19102;BMP280;9683;49.028;12.064;2023-05-07T11:51:19;97301.19;;;22.70
19102;BMP280;9683;49.028;12.064;2023-05-07T11:53:45;97304.72;;;22.71
19102;BMP280;9683;49.028;12.064;2023-05-07T11:56:13;97307.03;;;22.77
19102;BMP280;9683;49.028;12.064;2023-05-07T11:58:40;97310.25;;;22.79
19102;BMP280;9683;49.028;12.064;2023-05-07T12:01:08;97309.16;;;22.80
19102;BMP280;9683;49.028;12.064;2023-05-07T12:03:37;97301.50;;;22.82
19102;BMP280;9683;49.028;12.064;2023-05-07T12:06:05;97302.03;;;22.84
19102;BMP280;9683;49.028;12.064;2023-05-07T12:08:32;97303.63;;;22.85
19102;BMP280;9683;49.028;12.064;2023-05-07T12:10:59;97304.63;;;22.90
19102;BMP280;9683;49.028;12.064;2023-05-07T12:13:26;97289.25;;;22.85
19102;BMP280;9683;49.028;12.064;2023-05-07T12:15:53;97308.56;;;22.97
19102;BMP280;9683;49.028;12.064;2023-05-07T12:18:20;97292.56;;;22.96
19102;BMP280;9683;49.028;12.064;2023-05-07T12:20:50;97303.16;;;22.97
19102;BMP280;9683;49.028;12.064;2023-05-07T12:23:16;97300.44;;;22.97
19102;BMP280;9683;49.028;12.064;2023-05-07T12:25:43;97300.63;;;23.01
19102;BMP280;9683;49.028;12.064;2023-05-07T12:28:13;97299.91;;;23.09
19102;BMP280;9683;49.028;12.064;2023-05-07T12:30:39;97291.06;;;23.03
19102;BMP280;9683;49.028;12.064;2023-05-07T12:33:06;97295.19;;;23.14
19102;BMP280;9683;49.028;12.064;2023-05-07T12:35:36;97292.88;;;23.21
19102;BMP280;9683;49.028;12.064;2023-05-07T12:38:07;97296.31;;;23.27
19102;BMP280;9683;49.028;12.064;2023-05-07T12:40:38;97299.69;;;23.33
19102;BMP280;9683;49.028;12.064;2023-05-07T12:43:04;97303.59;;;23.40
19102;BMP280;9683;49.028;12.064;2023-05-07T12:45:31;97295.91;;;23.47
19102;BMP280;9683;49.028;12.064;2023-05-07T12:48:02;97292.75;;;23.54
19102;BMP280;9683;49.028;12.064;2023-05-07T12:50:31;97294.56;;;23.58
19102;BMP280;9683;49.028;12.064;2023-05-07T12:52:58;97279.03;;;23.59
19102;BMP280;9683;49.028;12.064;2023-05-07T12:55:40;97271.41;;;23.61
19102;BMP280;9683;49.028;12.064;2023-05-07T12:58:07;97285.84;;;23.70
19102;BMP280;9683;49.028;12.064;2023-05-07T13:00:35;97287.19;;;23.72
19102;BMP280;9683;49.028;12.064;2023-05-07T13:03:02;97284.94;;;23.74
19102;BMP280;9683;49.028;12.064;2023-05-07T13:05:29;97277.47;;;23.80
19102;BMP280;9683;49.028;12.064;2023-05-07T13:07:56;97270.81;;;23.86
19102;BMP280;9683;49.028;12.064;2023-05-07T13:10:24;97267.97;;;23.91
19102;BMP280;9683;49.028;12.064;2023-05-07T13:12:52;97277.31;;;23.99
19102;BMP280;9683;49.028;12.064;2023-05-07T13:15:21;97247.94;;;23.87
19102;BMP280;9683;49.028;12.064;2023-05-07T13:17:48;97268.53;;;24.02
19102;BMP280;9683;49.028;12.064;2023-05-07T13:20:15;97266.13;;;24.00
19102;BMP280;9683;49.028;12.064;2023-05-07T13:22:42;97263.28;;;24.05
19102;BMP280;9683;49.028;12.064;2023-05-07T13:25:09;97252.09;;;24.07
19102;BMP280;9683;49.028;12.064;2023-05-07T13:27:35;97253.19;;;24.06
19102;BMP280;9683;49.028;12.064;2023-05-07T13:30:05;97253.88;;;24.11
19102;BMP280;9683;49.028;12.064;2023-05-07T13:32:32;97247.13;;;24.09
19102;BMP280;9683;49.028;12.064;2023-05-07T13:34:58;97244.84;;;24.02
19102;BMP280;9683;49.028;12.064;2023-05-07T13:37:25;97236.31;;;23.95
19102;BMP280;9683;49.028;12.064;2023-05-07T13:39:52;97240.09;;;23.86
19102;BMP280;9683;49.028;12.064;2023-05-07T13:42:18;97236.25;;;23.87
19102;BMP280;9683;49.028;12.064;2023-05-07T13:44:45;97237.44;;;23.94
19102;BMP280;9683;49.028;12.064;2023-05-07T13:47:13;97239.91;;;24.04
19102;BMP280;9683;49.028;12.064;2023-05-07T13:49:39;97235.94;;;24.10
19102;BMP280;9683;49.028;12.064;2023-05-07T13:52:06;97239.88;;;24.18
19102;BMP280;9683;49.028;12.064;2023-05-07T13:54:32;97237.19;;;24.27
19102;BMP280;9683;49.028;12.064;2023-05-07T13:56:59;97234.53;;;24.35
19102;BMP280;9683;49.028;12.064;2023-05-07T13:59:25;97236.97;;;24.45
19102;BMP280;9683;49.028;12.064;2023-05-07T14:01:52;97232.19;;;24.51
19102;BMP280;9683;49.028;12.064;2023-05-07T14:04:21;97234.66;;;24.61
19102;BMP280;9683;49.028;12.064;2023-05-07T14:06:48;97234.53;;;24.66
19102;BMP280;9683;49.028;12.064;2023-05-07T14:09:14;97231.31;;;24.73
19102;BMP280;9683;49.028;12.064;2023-05-07T14:11:41;97236.81;;;24.81
19102;BMP280;9683;49.028;12.064;2023-05-07T14:14:07;97237.50;;;24.87
19102;BMP280;9683;49.028;12.064;2023-05-07T14:16:35;97240.91;;;25.01